Weather at Spanish Cay Airport

Public forecast

Using degrees Celsius for public forecast. Weather courtesy of forecast.io.

Closest aviation weather report (METAR) to Spanish Cay Airport

Closest report is Grand Bahama International Airport, 66.1 nm (122.4 km) WSW.

2024/05/26 20:00 (retrieved 12 minutes ago)

MYGF 262000Z 14011KT 110V180 9999 -SHRA SCT020TCU BKN022 28/24 A2994 TSE53 RAB32

Closest aviation forecast (TAF) to Spanish Cay Airport

Closest forecast is Grand Bahama International Airport, 66.1 nm (122.4 km) WSW.

2024/05/26 18:18 (retrieved 2 hours ago)

TAF MYGF 261709Z 2618/2718 20006KT 9999 VCSH FEW016CB SCT045